sensor_id;sensor_type;location;lat;lon;timestamp;P1;durP1;ratioP1;P2;durP2;ratioP2
3081;SDS011;1551;51.046;7.010;2023-05-10T00:00:17;6.90;;;5.80;;
3081;SDS011;1551;51.046;7.010;2023-05-10T00:03:06;6.95;;;6.25;;
3081;SDS011;1551;51.046;7.010;2023-05-10T00:05:55;7.10;;;5.70;;
3081;SDS011;1551;51.046;7.010;2023-05-10T00:08:44;7.90;;;6.97;;
3081;SDS011;1551;51.046;7.010;2023-05-10T00:11:34;8.20;;;6.70;;
3081;SDS011;1551;51.046;7.010;2023-05-10T00:14:23;11.15;;;7.40;;
3081;SDS011;1551;51.046;7.010;2023-05-10T00:17:13;9.43;;;7.55;;
3081;SDS011;1551;51.046;7.010;2023-05-10T00:20:02;8.05;;;6.95;;
3081;SDS011;1551;51.046;7.010;2023-05-10T00:22:53;9.82;;;7.32;;
3081;SDS011;1551;51.046;7.010;2023-05-10T00:25:42;8.70;;;7.10;;
3081;SDS011;1551;51.046;7.010;2023-05-10T00:28:31;9.50;;;7.60;;
3081;SDS011;1551;51.046;7.010;2023-05-10T00:31:20;9.70;;;7.90;;
3081;SDS011;1551;51.046;7.010;2023-05-10T00:34:09;9.43;;;7.75;;
3081;SDS011;1551;51.046;7.010;2023-05-10T00:36:58;10.48;;;7.78;;
3081;SDS011;1551;51.046;7.010;2023-05-10T00:39:47;9.90;;;7.68;;
3081;SDS011;1551;51.046;7.010;2023-05-10T00:42:36;9.50;;;7.80;;
3081;SDS011;1551;51.046;7.010;2023-05-10T00:45:25;8.82;;;6.93;;
3081;SDS011;1551;51.046;7.010;2023-05-10T00:48:14;10.10;;;7.72;;
3081;SDS011;1551;51.046;7.010;2023-05-10T00:51:03;8.63;;;7.72;;
3081;SDS011;1551;51.046;7.010;2023-05-10T00:53:53;9.77;;;8.05;;
3081;SDS011;1551;51.046;7.010;2023-05-10T00:56:44;10.40;;;8.77;;
3081;SDS011;1551;51.046;7.010;2023-05-10T00:59:37;10.55;;;8.43;;
3081;SDS011;1551;51.046;7.010;2023-05-10T01:02:26;10.27;;;8.30;;
3081;SDS011;1551;51.046;7.010;2023-05-10T01:05:16;10.93;;;8.30;;
3081;SDS011;1551;51.046;7.010;2023-05-10T01:08:05;10.88;;;8.50;;
3081;SDS011;1551;51.046;7.010;2023-05-10T01:10:55;10.00;;;8.33;;
3081;SDS011;1551;51.046;7.010;2023-05-10T01:13:44;10.73;;;9.50;;
3081;SDS011;1551;51.046;7.010;2023-05-10T01:16:39;10.27;;;8.00;;
3081;SDS011;1551;51.046;7.010;2023-05-10T01:19:29;10.30;;;8.80;;
3081;SDS011;1551;51.046;7.010;2023-05-10T01:25:43;10.43;;;9.07;;
3081;SDS011;1551;51.046;7.010;2023-05-10T01:29:28;10.48;;;8.40;;
3081;SDS011;1551;51.046;7.010;2023-05-10T01:35:10;11.05;;;8.52;;
3081;SDS011;1551;51.046;7.010;2023-05-10T01:38:12;11.07;;;9.18;;
3081;SDS011;1551;51.046;7.010;2023-05-10T01:47:14;12.38;;;8.73;;
3081;SDS011;1551;51.046;7.010;2023-05-10T01:50:06;9.80;;;8.48;;
3081;SDS011;1551;51.046;7.010;2023-05-10T01:53:00;9.60;;;8.43;;
3081;SDS011;1551;51.046;7.010;2023-05-10T01:55:52;9.10;;;7.50;;
3081;SDS011;1551;51.046;7.010;2023-05-10T01:58:44;7.95;;;5.95;;
3081;SDS011;1551;51.046;7.010;2023-05-10T02:01:37;7.50;;;6.20;;
3081;SDS011;1551;51.046;7.010;2023-05-10T02:04:27;6.90;;;5.73;;
3081;SDS011;1551;51.046;7.010;2023-05-10T02:07:18;9.13;;;6.50;;
3081;SDS011;1551;51.046;7.010;2023-05-10T02:10:09;7.80;;;6.20;;
3081;SDS011;1551;51.046;7.010;2023-05-10T02:12:59;8.50;;;5.63;;
3081;SDS011;1551;51.046;7.010;2023-05-10T02:15:50;7.40;;;6.22;;
3081;SDS011;1551;51.046;7.010;2023-05-10T02:18:40;9.52;;;6.20;;
3081;SDS011;1551;51.046;7.010;2023-05-10T02:21:30;8.02;;;5.53;;
3081;SDS011;1551;51.046;7.010;2023-05-10T02:24:21;7.57;;;5.73;;
3081;SDS011;1551;51.046;7.010;2023-05-10T02:27:13;7.72;;;5.20;;
3081;SDS011;1551;51.046;7.010;2023-05-10T02:30:05;6.10;;;4.45;;
3081;SDS011;1551;51.046;7.010;2023-05-10T02:32:55;6.57;;;4.13;;
3081;SDS011;1551;51.046;7.010;2023-05-10T02:35:46;6.20;;;4.85;;
3081;SDS011;1551;51.046;7.010;2023-05-10T02:38:36;6.68;;;4.70;;
3081;SDS011;1551;51.046;7.010;2023-05-10T02:41:25;5.88;;;4.10;;
3081;SDS011;1551;51.046;7.010;2023-05-10T02:44:17;6.40;;;4.27;;
3081;SDS011;1551;51.046;7.010;2023-05-10T02:47:09;8.00;;;4.63;;
3081;SDS011;1551;51.046;7.010;2023-05-10T02:49:58;7.20;;;4.18;;
3081;SDS011;1551;51.046;7.010;2023-05-10T02:52:49;8.20;;;4.80;;
3081;SDS011;1551;51.046;7.010;2023-05-10T02:55:43;6.60;;;4.50;;
3081;SDS011;1551;51.046;7.010;2023-05-10T02:58:37;7.13;;;4.70;;
3081;SDS011;1551;51.046;7.010;2023-05-10T03:01:26;6.45;;;4.75;;
3081;SDS011;1551;51.046;7.010;2023-05-10T03:04:15;6.80;;;4.23;;
3081;SDS011;1551;51.046;7.010;2023-05-10T03:07:04;6.25;;;4.20;;
3081;SDS011;1551;51.046;7.010;2023-05-10T03:09:53;7.88;;;4.75;;
3081;SDS011;1551;51.046;7.010;2023-05-10T03:15:52;5.60;;;4.30;;
3081;SDS011;1551;51.046;7.010;2023-05-10T03:26:09;6.38;;;4.45;;
3081;SDS011;1551;51.046;7.010;2023-05-10T03:29:01;5.70;;;4.10;;
3081;SDS011;1551;51.046;7.010;2023-05-10T03:31:51;9.68;;;5.25;;
3081;SDS011;1551;51.046;7.010;2023-05-10T03:34:43;6.90;;;4.65;;
3081;SDS011;1551;51.046;7.010;2023-05-10T03:37:33;8.57;;;5.00;;
3081;SDS011;1551;51.046;7.010;2023-05-10T03:40:22;6.50;;;4.75;;
3081;SDS011;1551;51.046;7.010;2023-05-10T03:43:12;6.70;;;4.75;;
3081;SDS011;1551;51.046;7.010;2023-05-10T03:46:05;7.45;;;5.07;;
3081;SDS011;1551;51.046;7.010;2023-05-10T03:48:54;6.50;;;5.10;;
3081;SDS011;1551;51.046;7.010;2023-05-10T03:51:43;7.35;;;5.03;;
3081;SDS011;1551;51.046;7.010;2023-05-10T03:54:32;7.33;;;5.80;;
3081;SDS011;1551;51.046;7.010;2023-05-10T03:57:21;8.55;;;6.03;;
3081;SDS011;1551;51.046;7.010;2023-05-10T04:00:11;6.90;;;5.30;;
3081;SDS011;1551;51.046;7.010;2023-05-10T04:03:03;8.45;;;6.15;;
3081;SDS011;1551;51.046;7.010;2023-05-10T04:06:01;8.18;;;6.32;;
3081;SDS011;1551;51.046;7.010;2023-05-10T04:08:51;8.43;;;6.53;;
3081;SDS011;1551;51.046;7.010;2023-05-10T04:11:40;10.43;;;6.15;;
3081;SDS011;1551;51.046;7.010;2023-05-10T04:14:29;7.57;;;6.28;;
3081;SDS011;1551;51.046;7.010;2023-05-10T04:17:18;8.70;;;7.00;;
3081;SDS011;1551;51.046;7.010;2023-05-10T04:20:07;8.35;;;6.55;;
3081;SDS011;1551;51.046;7.010;2023-05-10T04:22:56;10.23;;;7.80;;
3081;SDS011;1551;51.046;7.010;2023-05-10T04:25:45;9.30;;;7.30;;
3081;SDS011;1551;51.046;7.010;2023-05-10T04:28:34;9.10;;;7.30;;
3081;SDS011;1551;51.046;7.010;2023-05-10T04:31:24;12.50;;;8.32;;
3081;SDS011;1551;51.046;7.010;2023-05-10T04:34:13;10.30;;;7.70;;
3081;SDS011;1551;51.046;7.010;2023-05-10T04:37:01;11.67;;;8.47;;
3081;SDS011;1551;51.046;7.010;2023-05-10T04:39:50;11.40;;;8.70;;
3081;SDS011;1551;51.046;7.010;2023-05-10T04:42:40;11.30;;;9.02;;
3081;SDS011;1551;51.046;7.010;2023-05-10T04:45:30;11.32;;;8.30;;
3081;SDS011;1551;51.046;7.010;2023-05-10T04:48:19;11.63;;;9.80;;
3081;SDS011;1551;51.046;7.010;2023-05-10T04:51:07;12.73;;;10.13;;
3081;SDS011;1551;51.046;7.010;2023-05-10T04:53:57;16.60;;;10.97;;
3081;SDS011;1551;51.046;7.010;2023-05-10T04:56:46;12.93;;;10.43;;
3081;SDS011;1551;51.046;7.010;2023-05-10T04:59:35;13.40;;;10.80;;
3081;SDS011;1551;51.046;7.010;2023-05-10T05:02:22;13.90;;;10.70;;
3081;SDS011;1551;51.046;7.010;2023-05-10T05:05:12;14.83;;;12.30;;
3081;SDS011;1551;51.046;7.010;2023-05-10T05:08:01;14.20;;;11.25;;
3081;SDS011;1551;51.046;7.010;2023-05-10T05:10:50;14.55;;;11.10;;
3081;SDS011;1551;51.046;7.010;2023-05-10T05:13:39;14.23;;;10.68;;
3081;SDS011;1551;51.046;7.010;2023-05-10T05:16:30;14.37;;;10.57;;
3081;SDS011;1551;51.046;7.010;2023-05-10T05:19:19;12.77;;;10.13;;
3081;SDS011;1551;51.046;7.010;2023-05-10T05:22:08;12.30;;;10.07;;
3081;SDS011;1551;51.046;7.010;2023-05-10T05:24:57;13.82;;;10.52;;
3081;SDS011;1551;51.046;7.010;2023-05-10T05:27:51;14.07;;;10.90;;
3081;SDS011;1551;51.046;7.010;2023-05-10T05:30:40;14.85;;;10.75;;
3081;SDS011;1551;51.046;7.010;2023-05-10T05:33:28;13.57;;;10.15;;
3081;SDS011;1551;51.046;7.010;2023-05-10T05:36:17;12.00;;;10.80;;
3081;SDS011;1551;51.046;7.010;2023-05-10T05:39:06;14.43;;;10.15;;
3081;SDS011;1551;51.046;7.010;2023-05-10T05:41:55;15.05;;;12.30;;
3081;SDS011;1551;51.046;7.010;2023-05-10T05:44:44;14.35;;;10.38;;
3081;SDS011;1551;51.046;7.010;2023-05-10T05:47:33;15.50;;;11.00;;
3081;SDS011;1551;51.046;7.010;2023-05-10T05:50:22;14.57;;;10.43;;
3081;SDS011;1551;51.046;7.010;2023-05-10T05:53:11;13.80;;;12.00;;
3081;SDS011;1551;51.046;7.010;2023-05-10T05:56:00;15.43;;;11.35;;
3081;SDS011;1551;51.046;7.010;2023-05-10T05:58:49;14.80;;;11.10;;
3081;SDS011;1551;51.046;7.010;2023-05-10T06:01:39;14.32;;;11.55;;
3081;SDS011;1551;51.046;7.010;2023-05-10T06:04:27;17.17;;;11.15;;
3081;SDS011;1551;51.046;7.010;2023-05-10T06:07:16;15.77;;;12.07;;
3081;SDS011;1551;51.046;7.010;2023-05-10T06:10:05;17.00;;;10.68;;
3081;SDS011;1551;51.046;7.010;2023-05-10T06:12:55;15.50;;;9.90;;
3081;SDS011;1551;51.046;7.010;2023-05-10T06:15:44;16.08;;;10.48;;
3081;SDS011;1551;51.046;7.010;2023-05-10T06:18:33;16.00;;;11.05;;
3081;SDS011;1551;51.046;7.010;2023-05-10T06:21:23;13.50;;;10.18;;
3081;SDS011;1551;51.046;7.010;2023-05-10T06:24:12;14.65;;;10.93;;
3081;SDS011;1551;51.046;7.010;2023-05-10T06:27:01;16.20;;;10.65;;
3081;SDS011;1551;51.046;7.010;2023-05-10T06:29:50;14.20;;;9.82;;
3081;SDS011;1551;51.046;7.010;2023-05-10T06:32:39;13.85;;;9.98;;
3081;SDS011;1551;51.046;7.010;2023-05-10T06:35:28;14.43;;;10.77;;
3081;SDS011;1551;51.046;7.010;2023-05-10T06:38:17;16.42;;;11.30;;
3081;SDS011;1551;51.046;7.010;2023-05-10T06:41:06;15.90;;;10.53;;
3081;SDS011;1551;51.046;7.010;2023-05-10T06:43:55;16.77;;;10.57;;
3081;SDS011;1551;51.046;7.010;2023-05-10T06:46:44;17.27;;;11.43;;
3081;SDS011;1551;51.046;7.010;2023-05-10T06:49:33;14.57;;;10.23;;
3081;SDS011;1551;51.046;7.010;2023-05-10T06:52:22;15.65;;;11.25;;
3081;SDS011;1551;51.046;7.010;2023-05-10T06:55:12;17.40;;;10.10;;
3081;SDS011;1551;51.046;7.010;2023-05-10T06:58:01;15.18;;;10.93;;
3081;SDS011;1551;51.046;7.010;2023-05-10T07:00:50;15.15;;;10.73;;
3081;SDS011;1551;51.046;7.010;2023-05-10T07:03:39;17.08;;;10.82;;
3081;SDS011;1551;51.046;7.010;2023-05-10T07:06:29;13.87;;;10.80;;
3081;SDS011;1551;51.046;7.010;2023-05-10T07:09:18;15.85;;;12.05;;
3081;SDS011;1551;51.046;7.010;2023-05-10T07:12:07;13.20;;;10.82;;
3081;SDS011;1551;51.046;7.010;2023-05-10T07:14:56;14.32;;;11.73;;
3081;SDS011;1551;51.046;7.010;2023-05-10T07:17:45;16.52;;;12.25;;
3081;SDS011;1551;51.046;7.010;2023-05-10T07:20:34;15.90;;;12.10;;
3081;SDS011;1551;51.046;7.010;2023-05-10T07:23:23;19.80;;;14.60;;
3081;SDS011;1551;51.046;7.010;2023-05-10T07:26:12;16.73;;;12.05;;
3081;SDS011;1551;51.046;7.010;2023-05-10T07:29:01;15.23;;;11.73;;
3081;SDS011;1551;51.046;7.010;2023-05-10T07:31:50;16.10;;;11.70;;
3081;SDS011;1551;51.046;7.010;2023-05-10T07:34:39;14.30;;;11.10;;
3081;SDS011;1551;51.046;7.010;2023-05-10T07:37:28;14.65;;;10.80;;
3081;SDS011;1551;51.046;7.010;2023-05-10T07:40:17;13.35;;;9.38;;
3081;SDS011;1551;51.046;7.010;2023-05-10T07:43:06;15.63;;;9.02;;
3081;SDS011;1551;51.046;7.010;2023-05-10T07:45:55;14.93;;;7.90;;
3081;SDS011;1551;51.046;7.010;2023-05-10T07:48:46;13.30;;;9.30;;
3081;SDS011;1551;51.046;7.010;2023-05-10T07:51:35;14.48;;;8.38;;
3081;SDS011;1551;51.046;7.010;2023-05-10T07:54:24;13.10;;;8.10;;
3081;SDS011;1551;51.046;7.010;2023-05-10T07:57:13;10.45;;;6.80;;
3081;SDS011;1551;51.046;7.010;2023-05-10T08:00:04;11.70;;;7.80;;
3081;SDS011;1551;51.046;7.010;2023-05-10T08:03:02;12.75;;;8.50;;
3081;SDS011;1551;51.046;7.010;2023-05-10T08:05:51;13.18;;;8.88;;
3081;SDS011;1551;51.046;7.010;2023-05-10T08:08:40;15.27;;;6.45;;
3081;SDS011;1551;51.046;7.010;2023-05-10T08:11:30;13.95;;;8.80;;
3081;SDS011;1551;51.046;7.010;2023-05-10T08:14:19;13.45;;;9.00;;
3081;SDS011;1551;51.046;7.010;2023-05-10T08:17:08;12.05;;;8.98;;
3081;SDS011;1551;51.046;7.010;2023-05-10T08:19:57;11.00;;;8.70;;
3081;SDS011;1551;51.046;7.010;2023-05-10T08:22:46;15.40;;;8.68;;
3081;SDS011;1551;51.046;7.010;2023-05-10T08:25:35;14.32;;;9.43;;
3081;SDS011;1551;51.046;7.010;2023-05-10T08:28:24;14.13;;;9.10;;
3081;SDS011;1551;51.046;7.010;2023-05-10T08:31:13;11.80;;;8.70;;
3081;SDS011;1551;51.046;7.010;2023-05-10T08:34:03;11.68;;;8.25;;
3081;SDS011;1551;51.046;7.010;2023-05-10T08:36:52;13.63;;;9.45;;
3081;SDS011;1551;51.046;7.010;2023-05-10T08:39:41;11.52;;;9.65;;
3081;SDS011;1551;51.046;7.010;2023-05-10T08:42:30;12.90;;;8.43;;
3081;SDS011;1551;51.046;7.010;2023-05-10T08:45:24;16.17;;;8.00;;
3081;SDS011;1551;51.046;7.010;2023-05-10T08:48:16;12.15;;;6.20;;
3081;SDS011;1551;51.046;7.010;2023-05-10T08:51:05;13.52;;;7.55;;
3081;SDS011;1551;51.046;7.010;2023-05-10T08:53:54;13.95;;;8.25;;
3081;SDS011;1551;51.046;7.010;2023-05-10T08:56:44;13.30;;;8.40;;
3081;SDS011;1551;51.046;7.010;2023-05-10T08:59:33;12.48;;;8.45;;
3081;SDS011;1551;51.046;7.010;2023-05-10T09:02:22;13.95;;;9.95;;
3081;SDS011;1551;51.046;7.010;2023-05-10T09:05:12;13.60;;;9.38;;
3081;SDS011;1551;51.046;7.010;2023-05-10T09:08:01;12.20;;;8.88;;
3081;SDS011;1551;51.046;7.010;2023-05-10T09:10:50;12.27;;;8.98;;
3081;SDS011;1551;51.046;7.010;2023-05-10T09:13:39;17.10;;;10.23;;
3081;SDS011;1551;51.046;7.010;2023-05-10T09:16:29;11.15;;;7.55;;
3081;SDS011;1551;51.046;7.010;2023-05-10T09:19:18;11.13;;;7.43;;
3081;SDS011;1551;51.046;7.010;2023-05-10T09:22:07;12.68;;;9.35;;
3081;SDS011;1551;51.046;7.010;2023-05-10T09:25:09;15.77;;;11.48;;
3081;SDS011;1551;51.046;7.010;2023-05-10T09:27:59;17.60;;;11.65;;
3081;SDS011;1551;51.046;7.010;2023-05-10T09:30:52;15.88;;;10.98;;
3081;SDS011;1551;51.046;7.010;2023-05-10T09:33:46;14.60;;;10.70;;
3081;SDS011;1551;51.046;7.010;2023-05-10T09:36:36;17.10;;;12.25;;
3081;SDS011;1551;51.046;7.010;2023-05-10T09:39:32;19.73;;;12.77;;
3081;SDS011;1551;51.046;7.010;2023-05-10T09:42:22;15.93;;;12.27;;
3081;SDS011;1551;51.046;7.010;2023-05-10T09:45:11;19.30;;;13.53;;
3081;SDS011;1551;51.046;7.010;2023-05-10T09:48:00;16.20;;;11.30;;
3081;SDS011;1551;51.046;7.010;2023-05-10T09:50:56;17.53;;;12.20;;
3081;SDS011;1551;51.046;7.010;2023-05-10T09:53:47;16.63;;;11.90;;
3081;SDS011;1551;51.046;7.010;2023-05-10T09:56:37;18.30;;;12.07;;
3081;SDS011;1551;51.046;7.010;2023-05-10T09:59:28;19.53;;;13.60;;
3081;SDS011;1551;51.046;7.010;2023-05-10T10:02:18;19.45;;;13.10;;
3081;SDS011;1551;51.046;7.010;2023-05-10T10:05:07;18.10;;;14.20;;
3081;SDS011;1551;51.046;7.010;2023-05-10T10:07:57;16.95;;;11.32;;
3081;SDS011;1551;51.046;7.010;2023-05-10T10:10:47;17.90;;;14.20;;
3081;SDS011;1551;51.046;7.010;2023-05-10T10:13:36;16.20;;;12.55;;
3081;SDS011;1551;51.046;7.010;2023-05-10T10:16:26;20.83;;;14.30;;
3081;SDS011;1551;51.046;7.010;2023-05-10T10:19:20;18.17;;;14.73;;
3081;SDS011;1551;51.046;7.010;2023-05-10T10:22:10;17.75;;;12.80;;
3081;SDS011;1551;51.046;7.010;2023-05-10T10:25:00;17.85;;;12.40;;
3081;SDS011;1551;51.046;7.010;2023-05-10T10:30:41;16.03;;;12.03;;
3081;SDS011;1551;51.046;7.010;2023-05-10T10:33:51;15.13;;;11.98;;
3081;SDS011;1551;51.046;7.010;2023-05-10T10:36:48;16.70;;;13.10;;
3081;SDS011;1551;51.046;7.010;2023-05-10T10:39:37;15.25;;;11.30;;
3081;SDS011;1551;51.046;7.010;2023-05-10T10:42:44;16.40;;;11.53;;
3081;SDS011;1551;51.046;7.010;2023-05-10T10:45:34;18.90;;;11.60;;
3081;SDS011;1551;51.046;7.010;2023-05-10T10:48:28;16.98;;;11.02;;
3081;SDS011;1551;51.046;7.010;2023-05-10T10:51:17;16.77;;;12.15;;
3081;SDS011;1551;51.046;7.010;2023-05-10T10:54:09;13.45;;;10.48;;
3081;SDS011;1551;51.046;7.010;2023-05-10T10:57:12;16.88;;;12.50;;
3081;SDS011;1551;51.046;7.010;2023-05-10T11:03:13;12.57;;;10.18;;
3081;SDS011;1551;51.046;7.010;2023-05-10T11:06:03;13.60;;;12.15;;
3081;SDS011;1551;51.046;7.010;2023-05-10T11:08:52;14.55;;;11.82;;
3081;SDS011;1551;51.046;7.010;2023-05-10T11:11:51;16.17;;;12.30;;
3081;SDS011;1551;51.046;7.010;2023-05-10T11:14:43;16.83;;;11.38;;
3081;SDS011;1551;51.046;7.010;2023-05-10T11:17:38;14.63;;;11.20;;
3081;SDS011;1551;51.046;7.010;2023-05-10T11:20:28;13.20;;;11.40;;
3081;SDS011;1551;51.046;7.010;2023-05-10T11:23:22;13.55;;;11.15;;
3081;SDS011;1551;51.046;7.010;2023-05-10T11:26:11;13.50;;;10.43;;
3081;SDS011;1551;51.046;7.010;2023-05-10T11:29:00;13.20;;;10.40;;
3081;SDS011;1551;51.046;7.010;2023-05-10T11:31:50;11.82;;;9.00;;
3081;SDS011;1551;51.046;7.010;2023-05-10T11:34:39;12.65;;;9.60;;
3081;SDS011;1551;51.046;7.010;2023-05-10T11:37:28;12.38;;;10.07;;
3081;SDS011;1551;51.046;7.010;2023-05-10T11:40:23;12.05;;;8.95;;
3081;SDS011;1551;51.046;7.010;2023-05-10T11:43:13;12.85;;;9.32;;
3081;SDS011;1551;51.046;7.010;2023-05-10T11:46:03;12.02;;;8.60;;
3081;SDS011;1551;51.046;7.010;2023-05-10T11:48:53;8.30;;;6.50;;
3081;SDS011;1551;51.046;7.010;2023-05-10T11:51:43;10.10;;;7.55;;
3081;SDS011;1551;51.046;7.010;2023-05-10T11:54:32;10.70;;;7.53;;
3081;SDS011;1551;51.046;7.010;2023-05-10T11:57:25;9.32;;;7.40;;
3081;SDS011;1551;51.046;7.010;2023-05-10T12:00:15;9.88;;;7.63;;
3081;SDS011;1551;51.046;7.010;2023-05-10T12:03:05;9.20;;;7.30;;
3081;SDS011;1551;51.046;7.010;2023-05-10T12:05:54;9.27;;;7.13;;
3081;SDS011;1551;51.046;7.010;2023-05-10T12:08:48;9.27;;;6.65;;
3081;SDS011;1551;51.046;7.010;2023-05-10T12:11:42;8.95;;;6.47;;
3081;SDS011;1551;51.046;7.010;2023-05-10T12:14:33;7.80;;;6.10;;
3081;SDS011;1551;51.046;7.010;2023-05-10T12:17:27;5.87;;;4.90;;
3081;SDS011;1551;51.046;7.010;2023-05-10T12:20:23;6.18;;;4.15;;
3081;SDS011;1551;51.046;7.010;2023-05-10T12:23:13;6.25;;;4.15;;
3081;SDS011;1551;51.046;7.010;2023-05-10T12:26:03;4.97;;;3.13;;
3081;SDS011;1551;51.046;7.010;2023-05-10T12:28:55;5.50;;;4.25;;
3081;SDS011;1551;51.046;7.010;2023-05-10T12:32:00;6.43;;;4.60;;
3081;SDS011;1551;51.046;7.010;2023-05-10T12:34:49;5.73;;;3.80;;
3081;SDS011;1551;51.046;7.010;2023-05-10T12:37:42;5.68;;;4.00;;
3081;SDS011;1551;51.046;7.010;2023-05-10T12:40:32;4.63;;;3.70;;
3081;SDS011;1551;51.046;7.010;2023-05-10T12:43:21;11.40;;;6.63;;
3081;SDS011;1551;51.046;7.010;2023-05-10T12:46:10;10.13;;;6.20;;
3081;SDS011;1551;51.046;7.010;2023-05-10T12:49:01;7.85;;;4.20;;
3081;SDS011;1551;51.046;7.010;2023-05-10T12:51:50;9.57;;;4.55;;
3081;SDS011;1551;51.046;7.010;2023-05-10T12:54:39;10.13;;;5.50;;
3081;SDS011;1551;51.046;7.010;2023-05-10T12:57:28;3.80;;;3.10;;
3081;SDS011;1551;51.046;7.010;2023-05-10T13:00:18;10.03;;;5.00;;
3081;SDS011;1551;51.046;7.010;2023-05-10T13:03:07;8.80;;;4.38;;
3081;SDS011;1551;51.046;7.010;2023-05-10T13:05:56;6.43;;;3.60;;
3081;SDS011;1551;51.046;7.010;2023-05-10T13:08:45;5.50;;;3.20;;
3081;SDS011;1551;51.046;7.010;2023-05-10T13:11:34;5.35;;;3.40;;
3081;SDS011;1551;51.046;7.010;2023-05-10T13:14:23;9.15;;;5.32;;
3081;SDS011;1551;51.046;7.010;2023-05-10T13:17:13;6.20;;;3.90;;
3081;SDS011;1551;51.046;7.010;2023-05-10T13:20:02;5.07;;;3.40;;
3081;SDS011;1551;51.046;7.010;2023-05-10T13:22:52;8.18;;;5.25;;
3081;SDS011;1551;51.046;7.010;2023-05-10T13:25:41;7.50;;;4.30;;
3081;SDS011;1551;51.046;7.010;2023-05-10T13:28:30;3.50;;;2.88;;
3081;SDS011;1551;51.046;7.010;2023-05-10T13:31:19;10.98;;;6.82;;
3081;SDS011;1551;51.046;7.010;2023-05-10T13:34:08;6.53;;;4.28;;
3081;SDS011;1551;51.046;7.010;2023-05-10T13:36:56;6.80;;;4.13;;
3081;SDS011;1551;51.046;7.010;2023-05-10T13:39:45;5.03;;;3.40;;
3081;SDS011;1551;51.046;7.010;2023-05-10T13:42:34;5.93;;;3.75;;
3081;SDS011;1551;51.046;7.010;2023-05-10T13:45:23;11.93;;;6.03;;
3081;SDS011;1551;51.046;7.010;2023-05-10T13:48:12;6.10;;;3.70;;
3081;SDS011;1551;51.046;7.010;2023-05-10T13:51:01;11.90;;;6.25;;
3081;SDS011;1551;51.046;7.010;2023-05-10T13:53:52;5.05;;;3.35;;
3081;SDS011;1551;51.046;7.010;2023-05-10T13:56:41;4.03;;;2.70;;
3081;SDS011;1551;51.046;7.010;2023-05-10T13:59:31;12.05;;;6.53;;
3081;SDS011;1551;51.046;7.010;2023-05-10T14:02:20;15.40;;;9.17;;
3081;SDS011;1551;51.046;7.010;2023-05-10T14:05:10;4.22;;;2.60;;
3081;SDS011;1551;51.046;7.010;2023-05-10T14:07:59;12.50;;;8.80;;
3081;SDS011;1551;51.046;7.010;2023-05-10T14:10:48;11.82;;;7.97;;
3081;SDS011;1551;51.046;7.010;2023-05-10T14:13:37;11.30;;;8.87;;
3081;SDS011;1551;51.046;7.010;2023-05-10T14:16:27;13.80;;;8.70;;
3081;SDS011;1551;51.046;7.010;2023-05-10T14:19:16;11.18;;;8.80;;
3081;SDS011;1551;51.046;7.010;2023-05-10T14:22:06;11.85;;;9.50;;
3081;SDS011;1551;51.046;7.010;2023-05-10T14:24:55;15.80;;;10.00;;
3081;SDS011;1551;51.046;7.010;2023-05-10T14:27:46;13.13;;;9.50;;
3081;SDS011;1551;51.046;7.010;2023-05-10T14:30:35;12.60;;;8.65;;
3081;SDS011;1551;51.046;7.010;2023-05-10T14:33:25;11.57;;;8.27;;
3081;SDS011;1551;51.046;7.010;2023-05-10T14:36:14;14.23;;;9.67;;
3081;SDS011;1551;51.046;7.010;2023-05-10T14:39:03;13.38;;;9.27;;
3081;SDS011;1551;51.046;7.010;2023-05-10T14:41:53;11.60;;;9.00;;
3081;SDS011;1551;51.046;7.010;2023-05-10T14:44:43;18.48;;;11.75;;
3081;SDS011;1551;51.046;7.010;2023-05-10T14:47:32;15.52;;;10.77;;
3081;SDS011;1551;51.046;7.010;2023-05-10T14:50:21;15.23;;;11.05;;
3081;SDS011;1551;51.046;7.010;2023-05-10T14:53:10;25.02;;;15.35;;
3081;SDS011;1551;51.046;7.010;2023-05-10T14:55:59;24.65;;;13.95;;
3081;SDS011;1551;51.046;7.010;2023-05-10T14:58:49;12.73;;;10.20;;
3081;SDS011;1551;51.046;7.010;2023-05-10T15:01:38;13.80;;;9.93;;
3081;SDS011;1551;51.046;7.010;2023-05-10T15:04:29;17.45;;;10.50;;
3081;SDS011;1551;51.046;7.010;2023-05-10T15:07:18;11.15;;;7.30;;
3081;SDS011;1551;51.046;7.010;2023-05-10T15:10:08;13.13;;;9.20;;
3081;SDS011;1551;51.046;7.010;2023-05-10T15:12:57;16.85;;;10.38;;
3081;SDS011;1551;51.046;7.010;2023-05-10T15:15:47;11.45;;;7.32;;
3081;SDS011;1551;51.046;7.010;2023-05-10T15:18:36;8.30;;;6.85;;
3081;SDS011;1551;51.046;7.010;2023-05-10T15:21:25;13.85;;;9.43;;
3081;SDS011;1551;51.046;7.010;2023-05-10T15:24:14;24.77;;;14.30;;
3081;SDS011;1551;51.046;7.010;2023-05-10T15:27:03;25.13;;;14.20;;
3081;SDS011;1551;51.046;7.010;2023-05-10T15:29:52;24.77;;;15.07;;
3081;SDS011;1551;51.046;7.010;2023-05-10T15:32:42;34.00;;;17.63;;
3081;SDS011;1551;51.046;7.010;2023-05-10T15:35:31;31.50;;;17.15;;
3081;SDS011;1551;51.046;7.010;2023-05-10T15:38:21;17.97;;;10.13;;
3081;SDS011;1551;51.046;7.010;2023-05-10T15:41:10;10.77;;;7.00;;
3081;SDS011;1551;51.046;7.010;2023-05-10T15:43:58;6.78;;;5.07;;
3081;SDS011;1551;51.046;7.010;2023-05-10T15:46:50;5.55;;;4.32;;
3081;SDS011;1551;51.046;7.010;2023-05-10T15:49:40;14.48;;;7.38;;
3081;SDS011;1551;51.046;7.010;2023-05-10T15:52:29;9.13;;;6.10;;
3081;SDS011;1551;51.046;7.010;2023-05-10T15:55:19;10.93;;;6.20;;
3081;SDS011;1551;51.046;7.010;2023-05-10T15:58:08;7.70;;;6.15;;
3081;SDS011;1551;51.046;7.010;2023-05-10T16:00:57;8.07;;;5.65;;
3081;SDS011;1551;51.046;7.010;2023-05-10T16:03:46;9.27;;;5.80;;
3081;SDS011;1551;51.046;7.010;2023-05-10T16:06:35;9.87;;;6.17;;
3081;SDS011;1551;51.046;7.010;2023-05-10T16:09:25;14.63;;;8.73;;
3081;SDS011;1551;51.046;7.010;2023-05-10T16:12:14;7.90;;;5.28;;
3081;SDS011;1551;51.046;7.010;2023-05-10T16:15:03;7.17;;;4.73;;
3081;SDS011;1551;51.046;7.010;2023-05-10T16:17:53;6.70;;;4.90;;
3081;SDS011;1551;51.046;7.010;2023-05-10T16:20:42;6.67;;;5.10;;
3081;SDS011;1551;51.046;7.010;2023-05-10T16:23:32;8.05;;;5.05;;
3081;SDS011;1551;51.046;7.010;2023-05-10T16:26:21;11.05;;;5.88;;
3081;SDS011;1551;51.046;7.010;2023-05-10T16:29:10;7.55;;;5.25;;
3081;SDS011;1551;51.046;7.010;2023-05-10T16:31:59;9.07;;;5.57;;
3081;SDS011;1551;51.046;7.010;2023-05-10T16:34:49;11.15;;;5.30;;
3081;SDS011;1551;51.046;7.010;2023-05-10T16:37:38;6.80;;;4.85;;
3081;SDS011;1551;51.046;7.010;2023-05-10T16:40:27;5.57;;;3.10;;
3081;SDS011;1551;51.046;7.010;2023-05-10T16:43:16;5.85;;;3.55;;
3081;SDS011;1551;51.046;7.010;2023-05-10T16:46:09;10.77;;;5.93;;
3081;SDS011;1551;51.046;7.010;2023-05-10T16:48:58;6.77;;;4.10;;
3081;SDS011;1551;51.046;7.010;2023-05-10T16:51:47;6.25;;;4.00;;
3081;SDS011;1551;51.046;7.010;2023-05-10T16:54:36;7.60;;;4.80;;
3081;SDS011;1551;51.046;7.010;2023-05-10T16:57:25;4.25;;;3.65;;
3081;SDS011;1551;51.046;7.010;2023-05-10T17:00:15;5.97;;;4.00;;
3081;SDS011;1551;51.046;7.010;2023-05-10T17:03:04;5.72;;;3.67;;
3081;SDS011;1551;51.046;7.010;2023-05-10T17:05:53;5.43;;;3.85;;
3081;SDS011;1551;51.046;7.010;2023-05-10T17:08:43;5.20;;;4.00;;
3081;SDS011;1551;51.046;7.010;2023-05-10T17:11:32;7.22;;;4.32;;
3081;SDS011;1551;51.046;7.010;2023-05-10T17:14:21;5.40;;;2.63;;
3081;SDS011;1551;51.046;7.010;2023-05-10T17:17:10;7.00;;;3.00;;
3081;SDS011;1551;51.046;7.010;2023-05-10T17:19:59;5.37;;;3.30;;
3081;SDS011;1551;51.046;7.010;2023-05-10T17:22:48;4.10;;;2.50;;
3081;SDS011;1551;51.046;7.010;2023-05-10T17:25:37;5.72;;;3.03;;
3081;SDS011;1551;51.046;7.010;2023-05-10T17:28:26;5.15;;;3.60;;
3081;SDS011;1551;51.046;7.010;2023-05-10T17:31:15;4.82;;;3.30;;
3081;SDS011;1551;51.046;7.010;2023-05-10T17:34:04;6.10;;;3.45;;
3081;SDS011;1551;51.046;7.010;2023-05-10T17:36:53;5.65;;;4.25;;
3081;SDS011;1551;51.046;7.010;2023-05-10T17:39:43;5.65;;;3.50;;
3081;SDS011;1551;51.046;7.010;2023-05-10T17:42:32;6.13;;;4.10;;
3081;SDS011;1551;51.046;7.010;2023-05-10T17:45:21;7.40;;;4.80;;
3081;SDS011;1551;51.046;7.010;2023-05-10T17:48:11;8.10;;;4.50;;
3081;SDS011;1551;51.046;7.010;2023-05-10T17:50:59;6.15;;;4.60;;